Time;durP1;ratioP1;P1;durP2;ratioP2;P2;SDS_P1;SDS_P2;PMS_P1;PMS_P2;Temp;Humidity;BMP_temperature;BMP_pressure;BME280_temperature;BME280_humidity;BME280_pressure;Samples;Min_cycle;Max_cycle;Signal;HPM_P1;HPM_P2
2021/07/16 00:01:58;;;;;;;60.22;4.82;;;;;;;17.96;87.52;97908.28;5001479;28;20049;-72
2021/07/16 00:04:23;;;;;;;79.40;5.85;;;;;;;17.98;85.86;97912.53;5000145;28;20467;-72
2021/07/16 00:06:52;;;;;;;75.78;5.78;;;;;;;18.23;84.63;97903.66;5003865;28;20493;-74
2021/07/16 00:09:18;;;;;;;65.95;5.45;;;;;;;18.49;85.25;97919.38;5002004;28;20034;-72
2021/07/16 00:11:44;;;;;;;86.47;6.03;;;;;;;18.33;85.10;97908.25;5001065;28;20051;-72
2021/07/16 00:14:09;;;;;;;67.40;5.28;;;;;;;18.26;85.37;97911.34;5002716;28;20032;-71
2021/07/16 00:16:35;;;;;;;75.65;5.57;;;;;;;18.24;84.99;97910.59;5005659;28;20122;-72
2021/07/16 00:19:00;;;;;;;76.40;5.90;;;;;;;18.04;85.34;97917.34;5002585;28;20026;-73
2021/07/16 00:21:26;;;;;;;74.05;5.88;;;;;;;18.30;84.40;97915.41;4999304;28;20658;-72
2021/07/16 00:23:52;;;;;;;61.45;4.93;;;;;;;18.15;83.87;97919.19;5006142;28;20025;-72
2021/07/16 00:26:17;;;;;;;70.75;5.38;;;;;;;17.82;85.39;97925.94;5003141;28;20215;-72
2021/07/16 00:28:43;;;;;;;76.05;5.78;;;;;;;17.72;84.96;97920.47;5001518;28;20036;-72
2021/07/16 00:31:10;;;;;;;74.93;5.72;;;;;;;17.67;86.21;97921.78;5001203;28;20700;-72
2021/07/16 00:33:35;;;;;;;74.55;5.65;;;;;;;17.51;85.50;97924.63;5001948;28;20041;-71
2021/07/16 00:36:01;;;;;;;75.43;5.70;;;;;;;17.77;84.57;97924.59;4997473;28;20037;-73
2021/07/16 00:38:27;;;;;;;69.38;5.88;;;;;;;17.24;86.54;97925.63;5002417;28;20116;-72
2021/07/16 00:40:52;;;;;;;64.45;5.40;;;;;;;17.13;87.17;97923.75;5005175;28;20049;-72
2021/07/16 00:43:17;;;;;;;67.70;5.47;;;;;;;17.06;87.86;97924.28;5001662;28;20034;-72
2021/07/16 00:45:44;;;;;;;69.93;5.45;;;;;;;17.09;88.88;97922.28;4995331;28;20034;-73
2021/07/16 00:48:09;;;;;;;64.20;5.28;;;;;;;17.23;88.53;97929.22;5000094;28;20065;-73
2021/07/16 00:50:37;;;;;;;70.40;5.53;;;;;;;17.69;87.75;97925.97;5004200;28;20443;-72
2021/07/16 00:53:04;;;;;;;67.40;5.20;;;;;;;18.04;85.67;97927.06;5004025;28;20091;-72
2021/07/16 00:55:31;;;;;;;64.80;4.90;;;;;;;17.84;86.18;97923.19;5001065;28;20037;-71
2021/07/16 00:57:57;;;;;;;72.68;5.80;;;;;;;18.21;84.83;97917.91;4998816;28;20528;-71
2021/07/16 01:00:24;;;;;;;68.50;5.35;;;;;;;17.69;84.68;97923.34;4995746;28;20800;-71
2021/07/16 01:02:50;;;;;;;73.82;5.63;;;;;;;17.61;85.91;97917.78;5000328;28;20033;-71
2021/07/16 01:05:17;;;;;;;65.07;5.13;;;;;;;18.14;85.88;97908.75;5000358;28;20030;-71
2021/07/16 01:07:45;;;;;;;85.40;6.03;;;;;;;18.30;84.71;97915.41;4999242;28;20026;-72
2021/07/16 01:10:11;;;;;;;74.85;5.45;;;;;;;18.76;83.06;97915.59;4995551;28;20394;-72
2021/07/16 01:12:40;;;;;;;64.30;5.07;;;;;;;18.95;82.00;97915.03;4995290;28;20025;-72
2021/07/16 01:15:07;;;;;;;71.43;5.68;;;;;;;18.54;81.70;97911.91;4995948;28;20048;-71
2021/07/16 01:17:33;;;;;;;82.38;6.18;;;;;;;18.22;81.53;97911.69;5001752;28;20034;-72
2021/07/16 01:19:58;;;;;;;70.93;5.43;;;;;;;18.16;83.78;97907.69;4999210;28;20065;-70
2021/07/16 01:22:30;;;;;;;72.72;5.82;;;;;;;17.54;85.07;97909.44;5002608;28;20142;-71
2021/07/16 01:24:56;;;;;;;64.65;5.45;;;;;;;17.15;86.15;97900.75;4998080;28;20117;-71
2021/07/16 01:27:22;;;;;;;64.82;5.63;;;;;;;17.03;86.51;97904.22;4998944;28;20812;-72
2021/07/16 01:29:48;;;;;;;63.30;5.00;;;;;;;17.47;85.06;97900.28;4998717;28;20049;-71
2021/07/16 01:32:17;;;;;;;67.85;5.72;;;;;;;17.54;84.53;97901.53;4999020;28;20037;-72
2021/07/16 01:34:47;;;;;;;79.43;5.80;;;;;;;17.60;87.29;97904.69;5000326;28;20030;-71
2021/07/16 01:37:12;;;;;;;64.60;5.35;;;;;;;17.77;83.33;97901.69;4994478;28;20040;-71
2021/07/16 01:39:41;;;;;;;76.43;6.15;;;;;;;17.25;84.75;97900.09;4994207;28;20038;-71
2021/07/16 01:42:08;;;;;;;77.15;6.32;;;;;;;17.05;86.96;97897.06;5002753;28;20044;-71
2021/07/16 01:44:35;;;;;;;67.35;5.45;;;;;;;17.66;85.64;97894.56;4998697;28;20064;-72
2021/07/16 01:47:02;;;;;;;67.15;5.45;;;;;;;17.36;87.56;97902.00;5001503;28;20172;-71
2021/07/16 01:49:28;;;;;;;74.60;5.53;;;;;;;17.89;85.61;97898.19;5002384;28;20041;-72
2021/07/16 01:51:53;;;;;;;80.80;5.95;;;;;;;17.75;83.55;97900.94;4999681;28;20038;-70
2021/07/16 01:54:19;;;;;;;80.82;6.15;;;;;;;17.54;84.08;97900.69;4991652;28;20450;-71
2021/07/16 01:56:44;;;;;;;77.60;5.95;;;;;;;17.23;84.20;97897.56;4995630;28;20114;-72
2021/07/16 01:59:11;;;;;;;79.97;6.07;;;;;;;17.29;88.23;97897.13;4999515;28;20022;-74
2021/07/16 02:01:36;;;;;;;73.50;6.07;;;;;;;17.15;85.63;97892.84;4994751;28;20041;-73
2021/07/16 02:04:02;;;;;;;58.83;4.88;;;;;;;17.29;85.51;97891.03;4998927;28;20053;-73
2021/07/16 02:06:27;;;;;;;77.80;5.70;;;;;;;17.05;84.18;97889.16;5000658;28;20179;-73
2021/07/16 02:08:52;;;;;;;62.00;5.38;;;;;;;17.10;84.04;97892.31;5001415;28;20792;-74
2021/07/16 02:11:21;;;;;;;79.70;6.30;;;;;;;16.54;86.46;97892.59;4998115;28;20035;-73
2021/07/16 02:13:50;;;;;;;70.80;5.90;;;;;;;16.24;88.86;97900.72;5001170;28;20021;-73
2021/07/16 02:16:16;;;;;;;63.60;5.60;;;;;;;16.50;87.73;97896.34;5001824;28;20152;-71
2021/07/16 02:18:50;;;;;;;75.63;6.22;;;;;;;16.08;88.08;97903.53;4999690;28;20026;-71
2021/07/16 02:21:15;;;;;;;78.43;6.25;;;;;;;16.07;88.09;97904.44;4997766;28;20111;-72
2021/07/16 02:23:41;;;;;;;78.10;6.00;;;;;;;16.16;89.71;97903.00;5002336;28;20474;-72
2021/07/16 02:26:07;;;;;;;68.30;5.55;;;;;;;16.73;88.41;97905.34;5000751;28;20038;-71
2021/07/16 02:28:32;;;;;;;86.63;6.55;;;;;;;16.49;86.18;97905.22;4997149;28;20396;-72
2021/07/16 02:31:00;;;;;;;71.80;5.63;;;;;;;16.22;86.20;97907.88;4997689;28;20035;-71
2021/07/16 02:33:25;;;;;;;74.20;5.63;;;;;;;16.42;85.42;97905.72;4995658;28;20087;-70
2021/07/16 02:35:51;;;;;;;76.93;6.10;;;;;;;16.10;87.50;97916.56;4993836;28;20729;-71
2021/07/16 02:38:17;;;;;;;78.57;6.03;;;;;;;16.40;87.88;97918.16;5002129;28;20486;-71
2021/07/16 02:40:43;;;;;;;80.68;6.07;;;;;;;16.41;87.31;97917.19;4999207;28;20041;-72
2021/07/16 02:43:09;;;;;;;69.00;5.47;;;;;;;16.14;87.55;97915.44;5003047;28;20033;-70
2021/07/16 02:45:35;;;;;;;73.22;5.50;;;;;;;16.11;86.78;97915.63;4998510;28;20033;-72
2021/07/16 02:48:00;;;;;;;58.13;5.00;;;;;;;15.94;87.69;97927.25;5001789;28;20030;-71
2021/07/16 02:50:29;;;;;;;74.07;5.57;;;;;;;15.64;89.33;97927.34;5000084;28;20038;-70
2021/07/16 02:52:55;;;;;;;71.50;5.32;;;;;;;15.65;88.11;97931.69;4994917;28;20036;-71
2021/07/16 02:55:20;;;;;;;72.20;5.50;;;;;;;15.69;88.70;97939.25;4996895;28;20026;-71
2021/07/16 02:57:47;;;;;;;95.80;6.75;;;;;;;16.04;89.35;97949.38;5002724;28;20064;-71
2021/07/16 03:00:15;;;;;;;75.45;5.90;;;;;;;16.42;87.19;97942.56;5002360;28;20026;-71
2021/07/16 03:02:46;;;;;;;77.95;6.00;;;;;;;16.29;87.07;97946.00;4997175;28;20057;-71
2021/07/16 03:05:15;;;;;;;83.63;6.03;;;;;;;16.48;87.60;97950.06;5003966;28;20036;-71
2021/07/16 03:07:41;;;;;;;84.20;6.30;;;;;;;16.15;87.34;97952.16;4999487;28;20113;-71
2021/07/16 03:10:09;;;;;;;66.60;5.13;;;;;;;16.48;87.44;97953.53;5000052;28;20034;-72
2021/07/16 03:12:39;;;;;;;71.25;5.45;;;;;;;16.57;84.94;97952.09;5013090;28;20042;-71
2021/07/16 03:15:07;;;;;;;70.63;5.40;;;;;;;16.71;86.46;97965.19;5008359;28;20420;-71
2021/07/16 03:17:32;;;;;;;71.75;5.47;;;;;;;16.80;85.96;97960.22;4995902;28;20041;-71
2021/07/16 03:19:58;;;;;;;76.38;5.50;;;;;;;16.97;84.42;97962.63;4999508;28;20025;-70
2021/07/16 03:22:23;;;;;;;71.30;5.18;;;;;;;16.89;84.68;97973.69;5001610;28;20152;-71
2021/07/16 03:24:48;;;;;;;70.10;5.50;;;;;;;16.74;85.34;97967.63;5002281;28;20062;-72
2021/07/16 03:27:14;;;;;;;76.95;5.90;;;;;;;16.36;85.60;97970.97;4998840;28;20053;-71
2021/07/16 03:29:39;;;;;;;78.22;5.72;;;;;;;16.47;86.95;97967.66;5001929;28;20030;-71
2021/07/16 03:32:05;;;;;;;74.95;5.90;;;;;;;16.17;86.33;97981.00;5009498;28;20542;-72
2021/07/16 03:34:30;;;;;;;72.85;5.60;;;;;;;15.69;87.12;97976.06;5008734;28;20096;-71
2021/07/16 03:36:56;;;;;;;67.90;5.45;;;;;;;16.56;84.87;97984.66;5000927;28;20223;-71
2021/07/16 03:39:21;;;;;;;70.35;5.35;;;;;;;16.82;85.75;97979.41;5002017;28;20766;-71
2021/07/16 03:41:46;;;;;;;86.57;6.30;;;;;;;16.61;85.65;97974.63;5004375;28;20052;-72
2021/07/16 03:44:12;;;;;;;66.45;5.10;;;;;;;16.00;86.93;97985.53;5002234;28;20632;-72
2021/07/16 03:46:40;;;;;;;74.07;5.57;;;;;;;15.78;88.48;97990.47;5007422;28;20578;-71
2021/07/16 03:49:06;;;;;;;70.20;5.30;;;;;;;15.87;87.94;97995.16;5002463;28;20041;-71
2021/07/16 03:51:32;;;;;;;83.00;6.13;;;;;;;15.68;87.55;97994.56;5000708;28;20033;-71
2021/07/16 03:53:57;;;;;;;74.07;5.38;;;;;;;15.61;88.94;97994.13;5003219;28;20561;-71
2021/07/16 03:56:22;;;;;;;79.05;6.03;;;;;;;15.63;89.59;97991.41;5000410;28;20416;-71
2021/07/16 03:58:48;;;;;;;78.43;5.50;;;;;;;16.04;88.84;97990.63;5002991;28;20026;-71
2021/07/16 04:01:14;;;;;;;79.05;5.85;;;;;;;16.62;86.99;97991.28;5002923;28;20038;-71
2021/07/16 04:03:39;;;;;;;84.07;5.80;;;;;;;16.45;85.26;97989.75;5003716;28;20112;-71
2021/07/16 04:06:05;;;;;;;82.50;6.10;;;;;;;16.03;87.33;97994.19;5000566;28;20099;-72
2021/07/16 04:08:34;;;;;;;78.55;5.85;;;;;;;15.88;87.61;97991.59;5003357;28;20034;-71
2021/07/16 04:11:00;;;;;;;70.43;5.43;;;;;;;15.65;88.50;97994.78;5000571;28;20042;-71
2021/07/16 04:13:25;;;;;;;69.85;5.68;;;;;;;15.77;88.31;97991.44;5003175;28;20036;-71
2021/07/16 04:15:50;;;;;;;81.47;6.05;;;;;;;16.16;87.19;97984.59;5004543;28;20097;-71
2021/07/16 04:18:16;;;;;;;64.70;5.20;;;;;;;16.47;85.50;97993.09;5004904;28;20112;-71
2021/07/16 04:20:41;;;;;;;66.68;5.22;;;;;;;16.87;85.70;97995.78;4999495;28;20033;-70
2021/07/16 04:23:07;;;;;;;84.03;6.60;;;;;;;16.43;85.42;97992.50;4998070;28;20038;-71
2021/07/16 04:25:32;;;;;;;76.95;6.15;;;;;;;15.98;88.47;98003.22;5001272;28;20642;-71
2021/07/16 04:28:00;;;;;;;73.40;5.70;;;;;;;15.91;90.22;98012.44;5004219;28;20049;-70
2021/07/16 04:30:26;;;;;;;78.60;6.10;;;;;;;16.02;90.18;98003.03;5007886;28;20092;-71
2021/07/16 04:32:57;;;;;;;75.88;5.70;;;;;;;16.08;90.40;98008.75;5004290;28;20033;-71
2021/07/16 04:35:22;;;;;;;52.65;5.13;;;;;;;16.08;90.24;98014.03;4998108;28;20780;-73
2021/07/16 04:37:48;;;;;;;78.43;6.40;;;;;;;16.12;90.25;98012.00;4994548;28;20109;-71
2021/07/16 04:40:16;;;;;;;79.85;6.32;;;;;;;16.02;90.99;98013.56;5001539;28;20026;-71
2021/07/16 04:42:41;;;;;;;59.60;5.43;;;;;;;15.89;91.64;98019.56;5000611;28;20042;-72
2021/07/16 04:45:08;;;;;;;62.72;5.25;;;;;;;15.96;92.21;98014.78;4998684;28;20033;-72
2021/07/16 04:47:33;;;;;;;82.40;6.57;;;;;;;16.04;91.90;98011.66;5000098;28;20087;-73
2021/07/16 04:49:58;;;;;;;77.82;5.90;;;;;;;16.32;91.67;98016.88;5001837;28;20033;-72
2021/07/16 04:52:24;;;;;;;70.47;5.55;;;;;;;16.63;89.43;98006.97;5000979;28;20040;-71
2021/07/16 04:54:50;;;;;;;77.18;5.75;;;;;;;17.20;87.40;98013.75;5000858;28;20029;-73
2021/07/16 04:57:15;;;;;;;70.90;5.60;;;;;;;17.14;86.86;98015.00;4999305;28;20750;-72
2021/07/16 04:59:40;;;;;;;80.93;6.38;;;;;;;16.96;86.83;98013.63;5000146;28;20025;-73
2021/07/16 05:02:06;;;;;;;145.38;9.57;;;;;;;17.43;86.44;98019.25;4993369;28;20046;-71
2021/07/16 05:04:32;;;;;;;61.50;5.20;;;;;;;16.95;89.07;98009.31;5001083;28;20022;-71
2021/07/16 05:06:58;;;;;;;55.30;5.28;;;;;;;16.84;90.30;98017.09;5000554;28;20037;-71
2021/07/16 05:09:24;;;;;;;53.83;4.90;;;;;;;16.92;89.38;98015.59;5005742;28;20044;-71
2021/07/16 05:11:50;;;;;;;71.00;5.65;;;;;;;17.57;86.70;98015.66;5003223;28;20049;-71
2021/07/16 05:14:16;;;;;;;61.95;5.38;;;;;;;17.50;86.16;98021.38;4997787;28;20030;-71
2021/07/16 05:16:41;;;;;;;55.65;5.22;;;;;;;17.12;88.03;98022.19;5000837;28;20061;-72
2021/07/16 05:19:07;;;;;;;65.32;5.70;;;;;;;16.91;89.29;98028.91;5006708;28;20084;-71
2021/07/16 05:21:33;;;;;;;56.67;5.35;;;;;;;16.69;91.65;98026.78;5001180;28;20037;-71
2021/07/16 05:23:58;;;;;;;54.00;5.28;;;;;;;17.05;89.78;98031.44;5002459;28;20505;-72
2021/07/16 05:26:24;;;;;;;54.75;5.10;;;;;;;17.29;88.11;98031.56;5001886;28;20043;-72
2021/07/16 05:28:49;;;;;;;58.90;5.47;;;;;;;17.04;89.80;98032.41;5002958;28;20041;-71
2021/07/16 05:31:17;;;;;;;58.75;5.20;;;;;;;17.40;87.99;98036.13;5004650;28;20042;-73
2021/07/16 05:33:42;;;;;;;64.47;5.40;;;;;;;17.33;87.87;98024.31;5004888;28;20442;-72
2021/07/16 05:36:08;;;;;;;65.28;5.30;;;;;;;17.40;88.08;98030.84;5004328;28;20500;-71
2021/07/16 05:38:34;;;;;;;58.22;5.25;;;;;;;17.35;86.42;98032.97;5004437;28;20128;-73
2021/07/16 05:41:00;;;;;;;51.75;4.75;;;;;;;17.47;86.39;98036.56;5004313;28;20050;-70
2021/07/16 05:43:25;;;;;;;57.50;6.05;;;;;;;17.75;86.75;98040.75;5002801;28;20029;-71
2021/07/16 05:45:51;;;;;;;64.88;7.50;;;;;;;17.89;86.81;98037.19;4999658;28;20034;-71
2021/07/16 05:48:16;;;;;;;84.32;12.98;;;;;;;18.56;90.08;98044.72;5003067;28;20045;-72
2021/07/16 05:50:43;;;;;;;62.35;5.93;;;;;;;18.10;84.63;98040.09;5004933;28;20038;-71
2021/07/16 05:53:09;;;;;;;70.85;7.25;;;;;;;18.42;84.78;98050.16;5004616;28;20022;-71
2021/07/16 05:55:36;;;;;;;55.83;5.07;;;;;;;17.92;85.48;98045.75;5001162;28;20038;-71
2021/07/16 05:58:02;;;;;;;65.38;5.70;;;;;;;17.90;85.30;98045.00;4999158;28;20064;-72
2021/07/16 06:00:28;;;;;;;66.10;5.93;;;;;;;18.03;87.28;98055.56;5000942;28;20040;-71
2021/07/16 06:02:54;;;;;;;73.60;6.00;;;;;;;17.92;86.85;98048.38;5003222;28;20036;-73
2021/07/16 06:05:19;;;;;;;71.70;5.60;;;;;;;17.69;87.83;98046.47;5000410;28;20033;-72
2021/07/16 06:07:45;;;;;;;67.90;5.65;;;;;;;17.87;85.42;98050.50;4999029;28;20028;-71
2021/07/16 06:10:11;;;;;;;64.38;5.43;;;;;;;17.83;85.96;98048.13;4996859;28;20041;-71
2021/07/16 06:12:36;;;;;;;63.70;5.22;;;;;;;18.08;84.91;98049.94;4998197;28;20029;-73
2021/07/16 06:15:03;;;;;;;56.63;4.97;;;;;;;18.21;84.25;98052.53;5002096;28;20037;-72
2021/07/16 06:17:30;;;;;;;55.95;5.10;;;;;;;18.59;83.38;98052.41;4996779;28;20026;-71
2021/07/16 06:19:55;;;;;;;41.00;4.07;;;;;;;18.29;84.28;98058.13;5002107;28;20552;-74
2021/07/16 06:22:20;;;;;;;46.67;4.65;;;;;;;18.34;84.63;98052.50;5006346;28;20025;-71
2021/07/16 06:24:48;;;;;;;49.13;4.50;;;;;;;18.28;85.65;98059.91;5002743;28;20034;-73
2021/07/16 06:27:14;;;;;;;52.20;4.85;;;;;;;18.27;86.33;98068.78;5002296;28;20056;-71
2021/07/16 06:29:39;;;;;;;60.03;5.35;;;;;;;18.30;83.96;98068.56;5003649;28;20514;-71
2021/07/16 06:32:05;;;;;;;45.72;4.53;;;;;;;18.32;83.64;98079.00;5002529;28;20049;-74
2021/07/16 06:34:30;;;;;;;49.28;4.82;;;;;;;18.67;83.05;98080.91;5002003;28;20076;-71
2021/07/16 06:36:56;;;;;;;51.03;4.68;;;;;;;18.56;83.23;98076.41;4999381;28;20034;-72
2021/07/16 06:39:22;;;;;;;47.65;4.50;;;;;;;18.49;83.81;98075.19;5004097;28;20749;-71
2021/07/16 06:41:47;;;;;;;54.17;5.00;;;;;;;18.44;84.03;98079.94;5000352;28;20129;-70
2021/07/16 06:44:13;;;;;;;68.55;5.75;;;;;;;18.97;81.61;98083.16;5003244;28;20029;-71
2021/07/16 06:46:39;;;;;;;53.15;5.20;;;;;;;18.69;81.57;98079.84;5000297;28;20076;-74
2021/07/16 06:49:04;;;;;;;51.55;4.93;;;;;;;19.26;81.02;98082.75;5003987;28;20600;-71
2021/07/16 06:51:33;;;;;;;65.55;5.75;;;;;;;19.40;80.23;98082.56;5003550;28;20081;-72
2021/07/16 06:54:02;;;;;;;52.17;5.10;;;;;;;19.56;80.31;98084.88;5001304;28;20545;-72
2021/07/16 06:56:27;;;;;;;51.35;4.95;;;;;;;19.28;80.92;98086.16;4998219;28;20042;-71
2021/07/16 06:58:53;;;;;;;59.55;5.07;;;;;;;19.61;79.47;98089.81;5001684;28;20061;-72
2021/07/16 07:01:22;;;;;;;52.20;4.70;;;;;;;19.20;82.01;98083.22;4999577;28;20043;-71
2021/07/16 07:03:50;;;;;;;56.10;5.03;;;;;;;19.52;80.45;98090.50;5001376;28;20572;-71
2021/07/16 07:06:16;;;;;;;47.85;4.60;;;;;;;19.79;79.52;98079.66;5004096;28;20037;-71
2021/07/16 07:08:41;;;;;;;55.70;5.13;;;;;;;19.57;81.01;98091.00;5019734;28;20044;-71
2021/07/16 07:11:07;;;;;;;66.03;5.47;;;;;;;19.23;81.58;98073.25;5005243;28;20034;-72
2021/07/16 07:13:34;;;;;;;67.88;5.80;;;;;;;19.29;81.90;98081.69;4998949;28;20509;-73
2021/07/16 07:15:59;;;;;;;63.67;5.85;;;;;;;19.60;80.74;98080.22;4998264;28;20594;-71
2021/07/16 07:18:25;;;;;;;50.17;4.82;;;;;;;19.60;80.81;98088.16;4997980;28;20065;-72
2021/07/16 07:20:53;;;;;;;53.97;5.05;;;;;;;19.98;78.12;98090.50;4999573;28;20063;-73
2021/07/16 07:23:19;;;;;;;58.42;6.97;;;;;;;19.60;80.60;98096.09;5002469;28;20508;-71
2021/07/16 07:25:45;;;;;;;48.42;4.57;;;;;;;19.97;78.91;98093.25;5000320;28;20042;-74
2021/07/16 07:28:10;;;;;;;57.03;4.80;;;;;;;20.19;78.38;98098.56;4999420;28;20025;-74
2021/07/16 07:30:37;;;;;;;65.03;5.60;;;;;;;20.17;77.44;98089.06;5003315;28;20150;-72
2021/07/16 07:33:04;;;;;;;57.45;4.63;;;;;;;20.08;78.66;98090.63;5004065;28;20034;-74
2021/07/16 07:35:31;;;;;;;59.28;4.88;;;;;;;20.30;77.28;98086.28;4998501;28;20147;-74
2021/07/16 07:37:57;;;;;;;62.17;5.22;;;;;;;20.18;78.41;98091.59;4995468;28;20022;-72
2021/07/16 07:40:23;;;;;;;55.20;4.57;;;;;;;20.31;79.01;98093.25;4997068;28;20869;-72
2021/07/16 07:42:48;;;;;;;58.88;4.88;;;;;;;20.08;79.35;98090.63;4998569;28;20030;-73
2021/07/16 07:45:13;;;;;;;58.92;5.07;;;;;;;20.09;78.17;98097.59;5001071;28;20399;-72
2021/07/16 07:47:39;;;;;;;73.78;5.95;;;;;;;20.17;77.78;98095.19;5001470;28;20093;-72
2021/07/16 07:50:08;;;;;;;51.95;4.60;;;;;;;20.18;77.60;98096.88;5003754;28;20476;-72
2021/07/16 07:52:33;;;;;;;53.97;4.90;;;;;;;20.12;78.52;98097.34;5000214;28;20109;-72
2021/07/16 07:54:59;;;;;;;52.97;4.50;;;;;;;20.17;79.94;98095.19;4994157;28;20134;-72
2021/07/16 07:57:24;;;;;;;53.13;4.68;;;;;;;20.51;77.21;98096.94;5004691;28;20120;-73
2021/07/16 07:59:50;;;;;;;46.28;4.53;;;;;;;20.44;76.76;98101.91;5003402;28;20068;-73
2021/07/16 08:02:15;;;;;;;59.60;5.25;;;;;;;20.78;78.54;98101.88;4995754;28;20189;-73
2021/07/16 08:04:41;;;;;;;57.78;5.28;;;;;;;20.88;75.86;98105.47;5000876;28;20045;-72
2021/07/16 08:07:07;;;;;;;49.55;4.53;;;;;;;21.07;73.78;98103.97;5000684;28;20781;-73
2021/07/16 08:09:33;;;;;;;57.10;5.13;;;;;;;21.08;74.18;98106.50;5002490;28;20407;-72
2021/07/16 08:12:00;;;;;;;73.88;6.13;;;;;;;20.77;81.30;98110.81;4996450;28;20757;-73
2021/07/16 08:14:25;;;;;;;54.00;4.63;;;;;;;21.01;75.23;98104.44;5005561;28;20022;-72
2021/07/16 08:16:50;;;;;;;63.05;5.18;;;;;;;21.03;74.06;98105.19;5003774;28;20045;-74
2021/07/16 08:19:19;;;;;;;65.60;5.30;;;;;;;21.27;73.57;98103.13;5004018;28;20061;-73
2021/07/16 08:21:53;;;;;;;67.85;5.22;;;;;;;20.97;79.52;98104.72;5004054;28;20047;-73
2021/07/16 08:24:20;;;;;;;49.72;4.75;;;;;;;20.83;77.79;98102.34;5001645;28;20023;-73
2021/07/16 08:26:49;;;;;;;65.15;5.53;;;;;;;20.88;76.71;98100.16;5001826;28;20112;-72
2021/07/16 08:29:15;;;;;;;54.58;4.57;;;;;;;21.62;72.94;98104.69;5001305;28;20038;-72
2021/07/16 08:31:42;;;;;;;82.32;6.20;;;;;;;21.47;74.51;98105.97;5003390;28;20673;-71
2021/07/16 08:34:08;;;;;;;68.28;5.63;;;;;;;21.03;78.81;98107.84;5004794;28;20030;-73
2021/07/16 08:36:35;;;;;;;54.65;4.63;;;;;;;21.24;77.27;98106.03;5000544;28;20042;-72
2021/07/16 08:39:00;;;;;;;57.90;4.85;;;;;;;21.44;78.02;98111.50;5007953;28;20025;-70
2021/07/16 08:41:26;;;;;;;55.72;4.97;;;;;;;21.42;78.34;98113.44;5004480;28;20044;-72
2021/07/16 08:43:52;;;;;;;41.45;3.92;;;;;;;21.32;80.14;98108.91;5004847;28;20040;-72
2021/07/16 08:46:19;;;;;;;70.72;5.70;;;;;;;21.51;76.34;98110.06;4992873;28;20121;-72
2021/07/16 08:48:48;;;;;;;61.38;4.95;;;;;;;21.85;72.24;98109.81;5002700;28;20541;-72
2021/07/16 08:51:15;;;;;;;53.17;4.90;;;;;;;21.87;72.35;98119.38;5002119;28;20045;-72
2021/07/16 08:53:40;;;;;;;90.85;16.58;;;;;;;21.88;76.62;98114.88;4997895;28;20118;-71
2021/07/16 08:56:08;;;;;;;64.88;6.20;;;;;;;22.26;71.93;98114.25;5002111;28;20550;-73
2021/07/16 08:58:33;;;;;;;55.13;5.25;;;;;;;22.26;76.77;98116.91;5002195;28;20029;-73
2021/07/16 09:02:08;;;;;;;84.00;13.55;;;;;;;21.98;74.58;98117.59;5045575;28;20404;-71
2021/07/16 09:04:41;;;;;;;70.82;5.40;;;;;;;22.23;71.36;98116.31;5038008;28;20030;-73
2021/07/16 09:07:07;;;;;;;106.30;19.02;;;;;;;22.56;73.72;98120.50;5035557;28;20132;-72
2021/07/16 09:09:37;;;;;;;60.38;5.20;;;;;;;22.42;74.56;98124.38;5037609;28;20021;-71
2021/07/16 09:12:12;;;;;;;89.80;14.10;;;;;;;22.72;71.66;98125.31;5033712;28;20036;-71
2021/07/16 09:14:38;;;;;;;74.82;10.27;;;;;;;22.51;70.44;98123.56;5039485;28;20036;-71
2021/07/16 09:17:04;;;;;;;54.50;4.63;;;;;;;21.80;71.80;98122.66;5037017;28;20052;-72
2021/07/16 09:20:00;;;;;;;61.90;5.10;;;;;;;21.73;70.21;98117.03;5032330;28;20022;-73
2021/07/16 09:22:25;;;;;;;59.30;4.68;;;;;;;22.06;69.22;98118.63;5030099;28;20062;-71
2021/07/16 09:24:52;;;;;;;60.10;5.35;;;;;;;22.21;68.97;98110.28;5040668;28;20061;-73
2021/07/16 09:27:48;;;;;;;67.45;5.47;;;;;;;22.17;69.18;98108.88;5036010;28;20493;-72
2021/07/16 09:30:21;;;;;;;69.90;5.30;;;;;;;22.20;69.46;98108.59;5025615;28;20045;-73
2021/07/16 09:33:04;;;;;;;65.28;5.28;;;;;;;22.96;66.05;98111.63;5034194;28;20021;-73
2021/07/16 09:35:37;;;;;;;59.83;4.82;;;;;;;22.88;63.74;98112.31;5038692;28;20045;-73
2021/07/16 09:38:08;;;;;;;51.35;4.38;;;;;;;22.99;65.81;98110.50;5037651;28;20029;-73
2021/07/16 09:40:39;;;;;;;63.20;5.00;;;;;;;23.05;66.83;98107.34;5038842;28;20381;-73
2021/07/16 09:43:10;;;;;;;65.13;5.03;;;;;;;23.19;64.16;98100.75;5039245;28;20029;-72
2021/07/16 09:45:40;;;;;;;58.30;5.00;;;;;;;23.23;62.54;98094.16;5037790;28;20546;-72
2021/07/16 09:48:23;;;;;;;66.10;5.18;;;;;;;23.04;66.41;98103.81;5037403;28;20032;-72
2021/07/16 09:50:48;;;;;;;61.08;5.15;;;;;;;23.26;62.63;98096.53;5037191;28;20125;-72
2021/07/16 09:53:17;;;;;;;59.42;4.97;;;;;;;23.54;62.56;98105.47;5033923;28;20127;-73
2021/07/16 09:55:43;;;;;;;66.72;5.35;;;;;;;23.41;62.40;98100.44;5037959;28;20120;-73
2021/07/16 09:58:29;;;;;;;60.60;5.07;;;;;;;23.18;65.49;98097.25;5037367;28;20025;-73
2021/07/16 10:00:55;;;;;;;61.88;5.15;;;;;;;23.67;66.57;98100.69;5036507;28;20045;-72
2021/07/16 10:03:21;;;;;;;45.22;4.05;;;;;;;23.62;62.02;98102.13;5036231;28;20048;-72
2021/07/16 10:05:50;;;;;;;62.67;4.97;;;;;;;23.83;62.93;98099.28;5041447;28;20109;-74
2021/07/16 10:08:17;;;;;;;64.85;5.05;;;;;;;23.78;62.79;98097.00;5039359;28;20029;-72
2021/07/16 10:10:42;;;;;;;67.70;5.47;;;;;;;23.72;60.98;98097.59;5035187;28;20068;-73
2021/07/16 10:13:10;;;;;;;79.40;6.20;;;;;;;23.76;64.26;98098.16;5024630;28;20140;-73
2021/07/16 10:15:36;;;;;;;64.40;5.07;;;;;;;24.37;63.23;98088.84;5023325;28;20033;-73
2021/07/16 10:18:05;;;;;;;68.28;5.35;;;;;;;24.52;62.68;98083.84;5022430;28;20048;-74
2021/07/16 10:20:34;;;;;;;65.40;5.43;;;;;;;24.60;63.49;98086.63;5024322;28;20396;-72
2021/07/16 10:23:00;;;;;;;61.83;5.25;;;;;;;24.19;65.87;98083.47;5021297;28;20028;-71
2021/07/16 10:25:26;;;;;;;65.03;5.28;;;;;;;23.58;65.43;98087.38;5026491;28;20031;-73
2021/07/16 10:27:52;;;;;;;59.75;4.88;;;;;;;23.63;65.94;98096.63;5022615;28;20025;-72
2021/07/16 10:30:19;;;;;;;68.88;5.53;;;;;;;23.44;64.59;98099.34;5022431;28;20022;-72
2021/07/16 10:32:54;;;;;;;52.72;4.53;;;;;;;23.90;63.27;98094.22;5021624;28;20021;-71
2021/07/16 10:35:25;;;;;;;45.15;4.40;;;;;;;24.03;60.79;98092.06;5018627;28;20044;-71
2021/07/16 10:38:00;;;;;;;67.07;5.55;;;;;;;23.77;64.37;98089.19;5025578;28;20040;-71
2021/07/16 10:40:33;;;;;;;53.58;4.72;;;;;;;23.55;63.95;98085.88;5026423;28;20530;-71
2021/07/16 10:42:58;;;;;;;65.63;5.15;;;;;;;24.04;63.87;98081.28;5022843;28;20060;-71
2021/07/16 10:45:40;;;;;;;51.20;4.38;;;;;;;24.29;57.59;98084.25;5021459;28;20030;-71
2021/07/16 10:48:15;;;;;;;68.75;5.53;;;;;;;24.12;55.58;98075.22;5025067;28;20035;-71
2021/07/16 10:50:44;;;;;;;57.53;4.72;;;;;;;24.60;57.64;98076.81;5022395;28;20033;-71
2021/07/16 10:53:16;;;;;;;55.08;4.85;;;;;;;24.39;56.30;98078.84;5023063;28;20042;-72
2021/07/16 10:55:41;;;;;;;67.30;5.45;;;;;;;24.62;56.98;98082.00;5020838;28;20103;-71
2021/07/16 10:58:35;;;;;;;61.23;5.00;;;;;;;24.78;58.35;98074.16;5018483;28;20926;-71
2021/07/16 11:01:06;;;;;;;58.85;4.97;;;;;;;24.29;59.82;98081.56;5023939;28;20284;-72
2021/07/16 11:03:44;;;;;;;58.83;5.07;;;;;;;24.03;61.56;98079.59;5023223;28;20041;-71
2021/07/16 11:06:11;;;;;;;68.40;5.28;;;;;;;24.28;62.15;98093.25;5018978;28;20116;-71
2021/07/16 11:08:40;;;;;;;58.22;5.18;;;;;;;23.97;63.56;98098.00;5022102;28;20035;-71
2021/07/16 11:11:12;;;;;;;65.10;5.63;;;;;;;24.02;61.83;98098.38;5023072;28;20485;-71
2021/07/16 11:13:45;;;;;;;71.82;5.60;;;;;;;24.42;61.24;98092.72;5024382;28;20059;-71
2021/07/16 11:16:24;;;;;;;54.53;5.00;;;;;;;24.43;61.44;98094.41;5019965;28;20030;-73
2021/07/16 11:18:58;;;;;;;67.72;5.38;;;;;;;24.69;62.82;98090.25;5024440;28;20033;-71
2021/07/16 11:21:41;;;;;;;59.47;5.35;;;;;;;25.26;63.92;98092.66;5023513;28;20068;-71
2021/07/16 11:24:16;;;;;;;65.47;5.43;;;;;;;24.96;62.17;98081.31;5020410;28;20065;-73
2021/07/16 11:26:56;;;;;;;61.35;5.10;;;;;;;25.20;57.39;98088.75;5022493;28;20056;-71